sensor_id;sensor_type;location;lat;lon;timestamp;P1;durP1;ratioP1;P2;durP2;ratioP2
6928;SDS011;3504;52.616;13.238;2023-05-07T00:02:07;22.77;;;15.87;;
6928;SDS011;3504;52.616;13.238;2023-05-07T00:07:08;18.90;;;15.90;;
6928;SDS011;3504;52.616;13.238;2023-05-07T00:12:09;19.10;;;15.40;;
6928;SDS011;3504;52.616;13.238;2023-05-07T00:17:10;17.97;;;14.70;;
6928;SDS011;3504;52.616;13.238;2023-05-07T00:22:10;18.30;;;15.43;;
6928;SDS011;3504;52.616;13.238;2023-05-07T00:27:11;19.63;;;16.33;;
6928;SDS011;3504;52.616;13.238;2023-05-07T00:32:11;20.03;;;15.47;;
6928;SDS011;3504;52.616;13.238;2023-05-07T00:37:12;20.27;;;15.40;;
6928;SDS011;3504;52.616;13.238;2023-05-07T00:42:12;19.67;;;14.53;;
6928;SDS011;3504;52.616;13.238;2023-05-07T00:47:14;20.07;;;14.80;;
6928;SDS011;3504;52.616;13.238;2023-05-07T00:52:16;20.33;;;14.80;;
6928;SDS011;3504;52.616;13.238;2023-05-07T00:57:19;16.93;;;14.63;;
6928;SDS011;3504;52.616;13.238;2023-05-07T01:02:21;20.20;;;15.37;;
6928;SDS011;3504;52.616;13.238;2023-05-07T01:07:22;17.10;;;14.37;;
6928;SDS011;3504;52.616;13.238;2023-05-07T01:12:23;19.60;;;14.57;;
6928;SDS011;3504;52.616;13.238;2023-05-07T01:17:24;18.23;;;15.23;;
6928;SDS011;3504;52.616;13.238;2023-05-07T01:22:32;21.00;;;15.60;;
6928;SDS011;3504;52.616;13.238;2023-05-07T01:27:40;17.77;;;14.83;;
6928;SDS011;3504;52.616;13.238;2023-05-07T01:32:43;18.97;;;14.63;;
6928;SDS011;3504;52.616;13.238;2023-05-07T01:37:48;17.40;;;14.40;;
6928;SDS011;3504;52.616;13.238;2023-05-07T01:42:50;17.40;;;14.60;;
6928;SDS011;3504;52.616;13.238;2023-05-07T01:47:51;19.47;;;14.97;;
6928;SDS011;3504;52.616;13.238;2023-05-07T01:52:52;19.60;;;14.73;;
6928;SDS011;3504;52.616;13.238;2023-05-07T01:57:53;18.27;;;15.10;;
6928;SDS011;3504;52.616;13.238;2023-05-07T02:02:54;18.77;;;14.10;;
6928;SDS011;3504;52.616;13.238;2023-05-07T02:08:04;16.23;;;13.07;;
6928;SDS011;3504;52.616;13.238;2023-05-07T02:13:05;17.47;;;13.30;;
6928;SDS011;3504;52.616;13.238;2023-05-07T02:18:07;18.40;;;14.00;;
6928;SDS011;3504;52.616;13.238;2023-05-07T02:23:12;19.67;;;14.10;;
6928;SDS011;3504;52.616;13.238;2023-05-07T02:28:12;16.03;;;13.27;;
6928;SDS011;3504;52.616;13.238;2023-05-07T02:33:34;15.83;;;14.13;;
6928;SDS011;3504;52.616;13.238;2023-05-07T02:38:38;15.93;;;13.60;;
6928;SDS011;3504;52.616;13.238;2023-05-07T02:43:39;16.37;;;13.20;;
6928;SDS011;3504;52.616;13.238;2023-05-07T02:48:40;16.73;;;12.90;;
6928;SDS011;3504;52.616;13.238;2023-05-07T02:53:41;15.83;;;12.80;;
6928;SDS011;3504;52.616;13.238;2023-05-07T02:58:42;14.93;;;12.87;;
6928;SDS011;3504;52.616;13.238;2023-05-07T03:03:43;16.03;;;13.00;;
6928;SDS011;3504;52.616;13.238;2023-05-07T03:08:44;15.57;;;11.93;;
6928;SDS011;3504;52.616;13.238;2023-05-07T03:13:45;13.57;;;11.33;;
6928;SDS011;3504;52.616;13.238;2023-05-07T03:18:46;15.10;;;11.73;;
6928;SDS011;3504;52.616;13.238;2023-05-07T03:23:46;13.60;;;11.27;;
6928;SDS011;3504;52.616;13.238;2023-05-07T03:28:47;12.90;;;11.00;;
6928;SDS011;3504;52.616;13.238;2023-05-07T03:33:50;16.63;;;11.50;;
6928;SDS011;3504;52.616;13.238;2023-05-07T03:38:56;14.73;;;11.47;;
6928;SDS011;3504;52.616;13.238;2023-05-07T03:43:59;13.43;;;10.90;;
6928;SDS011;3504;52.616;13.238;2023-05-07T03:49:00;12.27;;;10.33;;
6928;SDS011;3504;52.616;13.238;2023-05-07T03:54:01;13.37;;;10.50;;
6928;SDS011;3504;52.616;13.238;2023-05-07T03:59:04;11.73;;;9.90;;
6928;SDS011;3504;52.616;13.238;2023-05-07T04:04:05;12.77;;;10.27;;
6928;SDS011;3504;52.616;13.238;2023-05-07T04:09:07;10.73;;;9.13;;
6928;SDS011;3504;52.616;13.238;2023-05-07T04:14:10;10.73;;;9.03;;
6928;SDS011;3504;52.616;13.238;2023-05-07T04:19:11;10.43;;;9.33;;
6928;SDS011;3504;52.616;13.238;2023-05-07T04:24:13;10.63;;;8.63;;
6928;SDS011;3504;52.616;13.238;2023-05-07T04:29:14;11.53;;;9.30;;
6928;SDS011;3504;52.616;13.238;2023-05-07T04:34:15;11.47;;;8.93;;
6928;SDS011;3504;52.616;13.238;2023-05-07T04:39:16;10.87;;;8.90;;
6928;SDS011;3504;52.616;13.238;2023-05-07T04:44:20;10.67;;;9.53;;
6928;SDS011;3504;52.616;13.238;2023-05-07T04:49:22;11.83;;;9.93;;
6928;SDS011;3504;52.616;13.238;2023-05-07T04:54:25;10.90;;;9.30;;
6928;SDS011;3504;52.616;13.238;2023-05-07T04:59:26;14.07;;;10.33;;
6928;SDS011;3504;52.616;13.238;2023-05-07T05:04:28;11.17;;;9.10;;
6928;SDS011;3504;52.616;13.238;2023-05-07T05:09:28;12.23;;;9.77;;
6928;SDS011;3504;52.616;13.238;2023-05-07T05:14:29;12.10;;;9.73;;
6928;SDS011;3504;52.616;13.238;2023-05-07T05:19:30;12.87;;;9.70;;
6928;SDS011;3504;52.616;13.238;2023-05-07T05:24:31;12.27;;;9.77;;
6928;SDS011;3504;52.616;13.238;2023-05-07T05:29:32;10.80;;;9.17;;
6928;SDS011;3504;52.616;13.238;2023-05-07T05:34:33;12.93;;;9.07;;
6928;SDS011;3504;52.616;13.238;2023-05-07T05:39:34;11.90;;;8.83;;
6928;SDS011;3504;52.616;13.238;2023-05-07T05:44:35;12.07;;;8.70;;
6928;SDS011;3504;52.616;13.238;2023-05-07T05:49:36;9.87;;;8.07;;
6928;SDS011;3504;52.616;13.238;2023-05-07T05:54:38;11.50;;;8.47;;
6928;SDS011;3504;52.616;13.238;2023-05-07T05:59:39;8.87;;;7.33;;
6928;SDS011;3504;52.616;13.238;2023-05-07T06:04:40;10.40;;;7.93;;
6928;SDS011;3504;52.616;13.238;2023-05-07T06:09:41;9.90;;;8.13;;
6928;SDS011;3504;52.616;13.238;2023-05-07T06:14:43;9.17;;;7.80;;
6928;SDS011;3504;52.616;13.238;2023-05-07T06:19:45;10.00;;;8.20;;
6928;SDS011;3504;52.616;13.238;2023-05-07T06:24:47;9.87;;;7.83;;
6928;SDS011;3504;52.616;13.238;2023-05-07T06:29:48;12.47;;;8.47;;
6928;SDS011;3504;52.616;13.238;2023-05-07T06:34:51;11.90;;;7.70;;
6928;SDS011;3504;52.616;13.238;2023-05-07T06:39:52;10.33;;;7.40;;
6928;SDS011;3504;52.616;13.238;2023-05-07T06:44:53;8.97;;;7.80;;
6928;SDS011;3504;52.616;13.238;2023-05-07T06:49:54;8.23;;;7.20;;
6928;SDS011;3504;52.616;13.238;2023-05-07T06:54:58;7.13;;;6.43;;
6928;SDS011;3504;52.616;13.238;2023-05-07T06:59:59;8.43;;;6.50;;
6928;SDS011;3504;52.616;13.238;2023-05-07T07:05:01;7.27;;;6.43;;
6928;SDS011;3504;52.616;13.238;2023-05-07T07:10:01;9.27;;;7.10;;
6928;SDS011;3504;52.616;13.238;2023-05-07T07:15:04;10.10;;;6.90;;
6928;SDS011;3504;52.616;13.238;2023-05-07T07:20:06;7.80;;;6.07;;
6928;SDS011;3504;52.616;13.238;2023-05-07T07:25:07;9.67;;;6.63;;
6928;SDS011;3504;52.616;13.238;2023-05-07T07:30:09;6.70;;;6.00;;
6928;SDS011;3504;52.616;13.238;2023-05-07T07:35:13;6.27;;;5.57;;
6928;SDS011;3504;52.616;13.238;2023-05-07T07:40:13;6.43;;;5.63;;
6928;SDS011;3504;52.616;13.238;2023-05-07T07:45:14;6.13;;;5.50;;
6928;SDS011;3504;52.616;13.238;2023-05-07T07:50:20;7.13;;;5.40;;
6928;SDS011;3504;52.616;13.238;2023-05-07T07:55:22;6.17;;;5.20;;
6928;SDS011;3504;52.616;13.238;2023-05-07T08:00:25;4.83;;;4.37;;
6928;SDS011;3504;52.616;13.238;2023-05-07T08:05:29;6.33;;;4.90;;
6928;SDS011;3504;52.616;13.238;2023-05-07T08:10:31;4.33;;;3.67;;
6928;SDS011;3504;52.616;13.238;2023-05-07T08:15:38;5.53;;;3.80;;
6928;SDS011;3504;52.616;13.238;2023-05-07T08:20:40;5.37;;;4.10;;
6928;SDS011;3504;52.616;13.238;2023-05-07T08:25:45;4.60;;;3.83;;
6928;SDS011;3504;52.616;13.238;2023-05-07T08:30:46;4.93;;;4.03;;
6928;SDS011;3504;52.616;13.238;2023-05-07T08:35:47;4.37;;;3.97;;
6928;SDS011;3504;52.616;13.238;2023-05-07T08:40:49;5.80;;;3.97;;
6928;SDS011;3504;52.616;13.238;2023-05-07T08:45:53;4.60;;;4.00;;
6928;SDS011;3504;52.616;13.238;2023-05-07T08:50:57;5.37;;;3.93;;
6928;SDS011;3504;52.616;13.238;2023-05-07T08:56:00;4.57;;;3.47;;
6928;SDS011;3504;52.616;13.238;2023-05-07T09:01:05;7.57;;;4.03;;
6928;SDS011;3504;52.616;13.238;2023-05-07T09:06:11;5.07;;;3.43;;
6928;SDS011;3504;52.616;13.238;2023-05-07T09:11:12;4.57;;;3.80;;
6928;SDS011;3504;52.616;13.238;2023-05-07T09:16:13;4.23;;;3.50;;
6928;SDS011;3504;52.616;13.238;2023-05-07T09:21:17;5.57;;;3.67;;
6928;SDS011;3504;52.616;13.238;2023-05-07T09:26:23;4.43;;;3.00;;
6928;SDS011;3504;52.616;13.238;2023-05-07T09:31:25;8.43;;;3.53;;
6928;SDS011;3504;52.616;13.238;2023-05-07T09:36:28;5.23;;;3.57;;
6928;SDS011;3504;52.616;13.238;2023-05-07T09:41:30;3.17;;;2.73;;
6928;SDS011;3504;52.616;13.238;2023-05-07T09:46:51;4.27;;;3.17;;
6928;SDS011;3504;52.616;13.238;2023-05-07T09:52:01;4.70;;;3.13;;
6928;SDS011;3504;52.616;13.238;2023-05-07T09:57:09;4.10;;;3.57;;
6928;SDS011;3504;52.616;13.238;2023-05-07T10:02:13;4.70;;;3.42;;
6928;SDS011;3504;52.616;13.238;2023-05-07T10:07:21;4.20;;;3.80;;
6928;SDS011;3504;52.616;13.238;2023-05-07T10:12:24;3.70;;;2.90;;
6928;SDS011;3504;52.616;13.238;2023-05-07T10:17:25;3.13;;;2.67;;
6928;SDS011;3504;52.616;13.238;2023-05-07T10:22:26;4.60;;;2.70;;
6928;SDS011;3504;52.616;13.238;2023-05-07T10:27:29;3.40;;;2.50;;
6928;SDS011;3504;52.616;13.238;2023-05-07T10:37:51;4.90;;;2.80;;
6928;SDS011;3504;52.616;13.238;2023-05-07T10:42:57;3.83;;;2.60;;
6928;SDS011;3504;52.616;13.238;2023-05-07T10:58:43;3.10;;;2.60;;
6928;SDS011;3504;52.616;13.238;2023-05-07T11:04:12;6.07;;;2.53;;
6928;SDS011;3504;52.616;13.238;2023-05-07T11:09:16;2.83;;;2.13;;
6928;SDS011;3504;52.616;13.238;2023-05-07T11:14:42;4.73;;;2.30;;
6928;SDS011;3504;52.616;13.238;2023-05-07T11:19:53;4.53;;;2.35;;
6928;SDS011;3504;52.616;13.238;2023-05-07T11:25:07;3.25;;;2.25;;
6928;SDS011;3504;52.616;13.238;2023-05-07T11:30:09;3.13;;;2.35;;
6928;SDS011;3504;52.616;13.238;2023-05-07T11:35:16;3.53;;;2.20;;
6928;SDS011;3504;52.616;13.238;2023-05-07T11:40:19;4.88;;;2.20;;
6928;SDS011;3504;52.616;13.238;2023-05-07T11:45:23;3.03;;;2.35;;
6928;SDS011;3504;52.616;13.238;2023-05-07T11:50:27;2.33;;;2.13;;
6928;SDS011;3504;52.616;13.238;2023-05-07T11:55:27;2.45;;;2.20;;
6928;SDS011;3504;52.616;13.238;2023-05-07T12:00:28;3.60;;;2.20;;
6928;SDS011;3504;52.616;13.238;2023-05-07T12:05:28;3.85;;;2.40;;
6928;SDS011;3504;52.616;13.238;2023-05-07T12:10:29;5.67;;;2.60;;
6928;SDS011;3504;52.616;13.238;2023-05-07T12:15:30;3.22;;;2.05;;
6928;SDS011;3504;52.616;13.238;2023-05-07T12:20:31;3.00;;;2.40;;
6928;SDS011;3504;52.616;13.238;2023-05-07T12:25:32;3.72;;;1.95;;
6928;SDS011;3504;52.616;13.238;2023-05-07T12:30:47;2.08;;;1.88;;
6928;SDS011;3504;52.616;13.238;2023-05-07T12:35:48;3.40;;;2.20;;
6928;SDS011;3504;52.616;13.238;2023-05-07T12:40:50;2.60;;;2.20;;
6928;SDS011;3504;52.616;13.238;2023-05-07T12:45:54;2.95;;;1.98;;
6928;SDS011;3504;52.616;13.238;2023-05-07T12:50:59;2.30;;;2.10;;
6928;SDS011;3504;52.616;13.238;2023-05-07T12:56:00;2.58;;;2.38;;
6928;SDS011;3504;52.616;13.238;2023-05-07T13:01:01;2.40;;;2.00;;
6928;SDS011;3504;52.616;13.238;2023-05-07T13:06:08;2.13;;;1.83;;
6928;SDS011;3504;52.616;13.238;2023-05-07T13:11:10;2.72;;;2.38;;
6928;SDS011;3504;52.616;13.238;2023-05-07T13:16:12;3.20;;;2.42;;
6928;SDS011;3504;52.616;13.238;2023-05-07T13:21:12;2.70;;;1.88;;
6928;SDS011;3504;52.616;13.238;2023-05-07T13:26:13;3.70;;;1.90;;
6928;SDS011;3504;52.616;13.238;2023-05-07T13:31:13;3.28;;;1.98;;
6928;SDS011;3504;52.616;13.238;2023-05-07T13:36:14;2.13;;;1.92;;
6928;SDS011;3504;52.616;13.238;2023-05-07T13:41:15;2.30;;;2.10;;
6928;SDS011;3504;52.616;13.238;2023-05-07T13:46:15;3.28;;;2.08;;
6928;SDS011;3504;52.616;13.238;2023-05-07T13:51:16;4.18;;;2.13;;
6928;SDS011;3504;52.616;13.238;2023-05-07T13:56:16;4.20;;;2.00;;
6928;SDS011;3504;52.616;13.238;2023-05-07T14:01:17;3.97;;;1.83;;
6928;SDS011;3504;52.616;13.238;2023-05-07T14:06:17;2.35;;;2.03;;
6928;SDS011;3504;52.616;13.238;2023-05-07T14:11:18;2.35;;;2.15;;
6928;SDS011;3504;52.616;13.238;2023-05-07T14:16:18;2.30;;;2.10;;
6928;SDS011;3504;52.616;13.238;2023-05-07T14:21:19;5.47;;;2.40;;
6928;SDS011;3504;52.616;13.238;2023-05-07T14:26:19;3.33;;;2.42;;
6928;SDS011;3504;52.616;13.238;2023-05-07T14:31:20;5.27;;;1.87;;
6928;SDS011;3504;52.616;13.238;2023-05-07T14:36:21;2.03;;;1.83;;
6928;SDS011;3504;52.616;13.238;2023-05-07T14:41:22;2.23;;;1.83;;
6928;SDS011;3504;52.616;13.238;2023-05-07T14:46:23;3.53;;;1.90;;
6928;SDS011;3504;52.616;13.238;2023-05-07T14:51:24;2.70;;;2.50;;
6928;SDS011;3504;52.616;13.238;2023-05-07T14:56:25;2.42;;;2.22;;
6928;SDS011;3504;52.616;13.238;2023-05-07T15:01:27;2.22;;;2.03;;
6928;SDS011;3504;52.616;13.238;2023-05-07T15:06:27;2.00;;;1.80;;
6928;SDS011;3504;52.616;13.238;2023-05-07T15:11:28;4.13;;;2.08;;
6928;SDS011;3504;52.616;13.238;2023-05-07T15:16:28;2.37;;;1.80;;
6928;SDS011;3504;52.616;13.238;2023-05-07T15:21:29;2.42;;;2.15;;
6928;SDS011;3504;52.616;13.238;2023-05-07T15:26:32;1.88;;;1.65;;
6928;SDS011;3504;52.616;13.238;2023-05-07T15:31:33;2.25;;;1.75;;
6928;SDS011;3504;52.616;13.238;2023-05-07T15:36:35;3.15;;;2.13;;
6928;SDS011;3504;52.616;13.238;2023-05-07T15:41:35;2.38;;;1.60;;
6928;SDS011;3504;52.616;13.238;2023-05-07T15:46:37;3.35;;;1.92;;
6928;SDS011;3504;52.616;13.238;2023-05-07T15:51:37;2.22;;;1.95;;
6928;SDS011;3504;52.616;13.238;2023-05-07T15:56:38;2.15;;;1.95;;
6928;SDS011;3504;52.616;13.238;2023-05-07T16:01:38;2.00;;;1.80;;
6928;SDS011;3504;52.616;13.238;2023-05-07T16:06:40;2.65;;;1.73;;
6928;SDS011;3504;52.616;13.238;2023-05-07T16:11:40;1.92;;;1.52;;
6928;SDS011;3504;52.616;13.238;2023-05-07T16:16:41;1.98;;;1.67;;
6928;SDS011;3504;52.616;13.238;2023-05-07T16:21:42;2.97;;;1.52;;
6928;SDS011;3504;52.616;13.238;2023-05-07T16:26:42;5.55;;;1.92;;
6928;SDS011;3504;52.616;13.238;2023-05-07T16:31:43;2.53;;;1.63;;
6928;SDS011;3504;52.616;13.238;2023-05-07T16:36:43;1.90;;;1.80;;
6928;SDS011;3504;52.616;13.238;2023-05-07T16:41:44;3.05;;;1.70;;
6928;SDS011;3504;52.616;13.238;2023-05-07T16:46:47;4.55;;;2.30;;
6928;SDS011;3504;52.616;13.238;2023-05-07T16:51:48;3.60;;;2.13;;
6928;SDS011;3504;52.616;13.238;2023-05-07T16:56:49;2.10;;;1.90;;
6928;SDS011;3504;52.616;13.238;2023-05-07T17:01:50;3.13;;;2.00;;
6928;SDS011;3504;52.616;13.238;2023-05-07T17:06:51;2.90;;;2.13;;
6928;SDS011;3504;52.616;13.238;2023-05-07T17:11:52;4.60;;;2.00;;
6928;SDS011;3504;52.616;13.238;2023-05-07T17:16:52;2.90;;;1.93;;
6928;SDS011;3504;52.616;13.238;2023-05-07T17:21:53;3.97;;;2.03;;
6928;SDS011;3504;52.616;13.238;2023-05-07T17:26:53;4.60;;;2.07;;
6928;SDS011;3504;52.616;13.238;2023-05-07T17:31:54;3.67;;;2.33;;
6928;SDS011;3504;52.616;13.238;2023-05-07T17:36:55;2.53;;;1.90;;
6928;SDS011;3504;52.616;13.238;2023-05-07T17:41:58;2.27;;;2.00;;
6928;SDS011;3504;52.616;13.238;2023-05-07T17:46:59;2.10;;;1.80;;
6928;SDS011;3504;52.616;13.238;2023-05-07T17:51:59;2.67;;;2.03;;
6928;SDS011;3504;52.616;13.238;2023-05-07T17:57:00;4.17;;;2.30;;
6928;SDS011;3504;52.616;13.238;2023-05-07T18:02:00;2.00;;;1.67;;
6928;SDS011;3504;52.616;13.238;2023-05-07T18:07:01;3.43;;;2.20;;
6928;SDS011;3504;52.616;13.238;2023-05-07T18:12:01;2.70;;;1.90;;
6928;SDS011;3504;52.616;13.238;2023-05-07T18:17:02;2.10;;;1.90;;
6928;SDS011;3504;52.616;13.238;2023-05-07T18:22:02;4.13;;;2.27;;
6928;SDS011;3504;52.616;13.238;2023-05-07T18:27:03;2.00;;;1.80;;
6928;SDS011;3504;52.616;13.238;2023-05-07T18:32:03;3.40;;;2.00;;
6928;SDS011;3504;52.616;13.238;2023-05-07T18:37:04;2.03;;;1.83;;
6928;SDS011;3504;52.616;13.238;2023-05-07T18:42:04;1.93;;;1.70;;
6928;SDS011;3504;52.616;13.238;2023-05-07T18:47:07;2.73;;;1.93;;
6928;SDS011;3504;52.616;13.238;2023-05-07T18:52:08;3.37;;;2.00;;
6928;SDS011;3504;52.616;13.238;2023-05-07T18:57:09;3.63;;;2.10;;
6928;SDS011;3504;52.616;13.238;2023-05-07T19:02:09;2.07;;;1.83;;
6928;SDS011;3504;52.616;13.238;2023-05-07T19:07:13;4.43;;;2.20;;
6928;SDS011;3504;52.616;13.238;2023-05-07T19:12:14;2.63;;;1.90;;
6928;SDS011;3504;52.616;13.238;2023-05-07T19:17:14;3.53;;;3.17;;
6928;SDS011;3504;52.616;13.238;2023-05-07T19:22:15;3.43;;;2.33;;
6928;SDS011;3504;52.616;13.238;2023-05-07T19:27:16;3.97;;;2.80;;
6928;SDS011;3504;52.616;13.238;2023-05-07T19:32:16;3.97;;;3.00;;
6928;SDS011;3504;52.616;13.238;2023-05-07T19:37:19;3.00;;;2.00;;
6928;SDS011;3504;52.616;13.238;2023-05-07T19:42:23;3.20;;;2.40;;
6928;SDS011;3504;52.616;13.238;2023-05-07T19:47:23;2.57;;;2.37;;
6928;SDS011;3504;52.616;13.238;2023-05-07T19:52:24;2.90;;;2.27;;
6928;SDS011;3504;52.616;13.238;2023-05-07T19:57:25;2.87;;;2.10;;
6928;SDS011;3504;52.616;13.238;2023-05-07T20:02:26;2.60;;;2.00;;
6928;SDS011;3504;52.616;13.238;2023-05-07T20:07:26;3.03;;;2.73;;
6928;SDS011;3504;52.616;13.238;2023-05-07T20:12:27;3.67;;;2.60;;
6928;SDS011;3504;52.616;13.238;2023-05-07T20:17:27;3.00;;;2.67;;
6928;SDS011;3504;52.616;13.238;2023-05-07T20:22:31;3.07;;;2.50;;
6928;SDS011;3504;52.616;13.238;2023-05-07T20:27:31;3.80;;;3.00;;
6928;SDS011;3504;52.616;13.238;2023-05-07T20:32:34;4.13;;;2.97;;
6928;SDS011;3504;52.616;13.238;2023-05-07T20:37:35;4.93;;;2.93;;
6928;SDS011;3504;52.616;13.238;2023-05-07T20:42:37;4.97;;;2.90;;
6928;SDS011;3504;52.616;13.238;2023-05-07T20:47:37;3.30;;;2.58;;
6928;SDS011;3504;52.616;13.238;2023-05-07T20:52:38;3.00;;;2.70;;
6928;SDS011;3504;52.616;13.238;2023-05-07T20:57:38;2.80;;;2.60;;
6928;SDS011;3504;52.616;13.238;2023-05-07T21:02:39;3.70;;;3.27;;
6928;SDS011;3504;52.616;13.238;2023-05-07T21:07:39;7.20;;;3.63;;
6928;SDS011;3504;52.616;13.238;2023-05-07T21:12:40;5.37;;;4.20;;
6928;SDS011;3504;52.616;13.238;2023-05-07T21:17:41;3.83;;;3.53;;
6928;SDS011;3504;52.616;13.238;2023-05-07T21:22:41;4.57;;;4.17;;
6928;SDS011;3504;52.616;13.238;2023-05-07T21:27:42;4.37;;;3.60;;
6928;SDS011;3504;52.616;13.238;2023-05-07T21:32:42;4.10;;;3.70;;
6928;SDS011;3504;52.616;13.238;2023-05-07T21:37:43;5.40;;;4.27;;
6928;SDS011;3504;52.616;13.238;2023-05-07T21:42:43;4.43;;;3.50;;
6928;SDS011;3504;52.616;13.238;2023-05-07T21:47:44;5.87;;;4.40;;
6928;SDS011;3504;52.616;13.238;2023-05-07T21:52:45;4.60;;;4.20;;
6928;SDS011;3504;52.616;13.238;2023-05-07T21:57:45;5.70;;;4.43;;
6928;SDS011;3504;52.616;13.238;2023-05-07T22:02:46;5.10;;;4.57;;
6928;SDS011;3504;52.616;13.238;2023-05-07T22:07:46;5.80;;;4.57;;
6928;SDS011;3504;52.616;13.238;2023-05-07T22:12:47;6.37;;;4.83;;
6928;SDS011;3504;52.616;13.238;2023-05-07T22:17:47;6.83;;;5.80;;
6928;SDS011;3504;52.616;13.238;2023-05-07T22:22:49;6.73;;;5.70;;
6928;SDS011;3504;52.616;13.238;2023-05-07T22:27:52;6.70;;;6.00;;
6928;SDS011;3504;52.616;13.238;2023-05-07T22:32:52;8.17;;;6.17;;
6928;SDS011;3504;52.616;13.238;2023-05-07T22:37:53;6.13;;;5.53;;
6928;SDS011;3504;52.616;13.238;2023-05-07T22:42:53;6.20;;;5.63;;
6928;SDS011;3504;52.616;13.238;2023-05-07T22:47:54;6.53;;;5.57;;
6928;SDS011;3504;52.616;13.238;2023-05-07T22:52:54;5.80;;;5.27;;
6928;SDS011;3504;52.616;13.238;2023-05-07T22:57:55;6.17;;;5.60;;
6928;SDS011;3504;52.616;13.238;2023-05-07T23:02:55;6.70;;;6.00;;
6928;SDS011;3504;52.616;13.238;2023-05-07T23:07:56;5.90;;;5.23;;
6928;SDS011;3504;52.616;13.238;2023-05-07T23:12:57;6.50;;;5.90;;
6928;SDS011;3504;52.616;13.238;2023-05-07T23:17:57;7.47;;;6.00;;
6928;SDS011;3504;52.616;13.238;2023-05-07T23:22:58;5.53;;;5.03;;
6928;SDS011;3504;52.616;13.238;2023-05-07T23:27:59;5.80;;;5.30;;
6928;SDS011;3504;52.616;13.238;2023-05-07T23:33:00;6.83;;;5.00;;
6928;SDS011;3504;52.616;13.238;2023-05-07T23:38:00;6.33;;;5.73;;
6928;SDS011;3504;52.616;13.238;2023-05-07T23:43:01;6.67;;;5.27;;
6928;SDS011;3504;52.616;13.238;2023-05-07T23:48:02;6.33;;;5.63;;
6928;SDS011;3504;52.616;13.238;2023-05-07T23:53:02;6.70;;;5.77;;
6928;SDS011;3504;52.616;13.238;2023-05-07T23:58:03;6.60;;;5.60;;
